ANA15 RJFK-RJFU
Flight info
| Callsign | ANA15 |
|---|---|
| Flight time | 0h 27m |
| Altitude | 14000 |
| Route | SASIK KAZSA OLE |
| Aircraft | B738/M-SDE2E3FGHIRWXY/LB1 |
Departure
| Time | 2026-04-22 03:19 |
|---|---|
| Airport | Kagoshima Airport (RJFK) |
Arrival
| Time | 2026-04-22 03:46 |
|---|---|
| Airport | Nagasaki Airport (RJFU) |
| Time | Latitude | Longitude | Altitude | Speed | Heading |
|---|---|---|---|---|---|
| 2026-04-22 02:36 | 31.80265 | 130.71582 | 888 ft | 0 kts | 240° |
| 2026-04-22 03:09 | 31.80269 | 130.71590 | 888 ft | 2 kts | 240° |
| 2026-04-22 03:09 | 31.80276 | 130.71605 | 888 ft | 2 kts | 240° |
| 2026-04-22 03:10 | 31.80284 | 130.71620 | 887 ft | 2 kts | 240° |
| 2026-04-22 03:10 | 31.80291 | 130.71635 | 887 ft | 2 kts | 240° |
| 2026-04-22 03:10 | 31.80298 | 130.71651 | 887 ft | 2 kts | 240° |
| 2026-04-22 03:10 | 31.80306 | 130.71666 | 886 ft | 2 kts | 240° |
| 2026-04-22 03:11 | 31.80313 | 130.71681 | 886 ft | 2 kts | 240° |
| 2026-04-22 03:11 | 31.80321 | 130.71696 | 886 ft | 2 kts | 240° |
| 2026-04-22 03:11 | 31.80328 | 130.71712 | 886 ft | 1 kts | 259° |
| 2026-04-22 03:11 | 31.80325 | 130.71727 | 886 ft | 1 kts | 317° |
| 2026-04-22 03:12 | 31.80320 | 130.71730 | 886 ft | 1 kts | 336° |
| 2026-04-22 03:12 | 31.80316 | 130.71733 | 886 ft | 0 kts | 330° |
| 2026-04-22 03:13 | 31.80321 | 130.71730 | 886 ft | 3 kts | 329° |
| 2026-04-22 03:13 | 31.80342 | 130.71715 | 886 ft | 3 kts | 329° |
| 2026-04-22 03:14 | 31.80364 | 130.71699 | 886 ft | 5 kts | 330° |
| 2026-04-22 03:14 | 31.80406 | 130.71672 | 886 ft | 7 kts | 330° |
| 2026-04-22 03:14 | 31.80450 | 130.71642 | 887 ft | 9 kts | 330° |
| 2026-04-22 03:14 | 31.80522 | 130.71593 | 888 ft | 14 kts | 330° |
| 2026-04-22 03:15 | 31.80628 | 130.71523 | 889 ft | 20 kts | 331° |
| 2026-04-22 03:15 | 31.80768 | 130.71436 | 891 ft | 25 kts | 334° |
| 2026-04-22 03:15 | 31.80945 | 130.71344 | 891 ft | 29 kts | 339° |
| 2026-04-22 03:15 | 31.81132 | 130.71277 | 890 ft | 24 kts | 347° |
| 2026-04-22 03:16 | 31.81276 | 130.71245 | 888 ft | 17 kts | 351° |
| 2026-04-22 03:16 | 31.81389 | 130.71225 | 886 ft | 18 kts | 352° |
| 2026-04-22 03:16 | 31.81526 | 130.71196 | 885 ft | 10 kts | 317° |
| 2026-04-22 03:16 | 31.81530 | 130.71184 | 886 ft | 0 kts | 258° |
| 2026-04-22 03:17 | 31.81527 | 130.71181 | 886 ft | 0 kts | 209° |
| 2026-04-22 03:17 | 31.81525 | 130.71181 | 886 ft | 0 kts | 198° |
| 2026-04-22 03:17 | 31.81461 | 130.71179 | 887 ft | 8 kts | 162° |
| 2026-04-22 03:17 | 31.81447 | 130.71191 | 887 ft | 0 kts | 148° |
| 2026-04-22 03:18 | 31.81427 | 130.71205 | 886 ft | 0 kts | 151° |
| 2026-04-22 03:18 | 31.81377 | 130.71237 | 885 ft | 25 kts | 150° |
| 2026-04-22 03:18 | 31.80943 | 130.71532 | 885 ft | 113 kts | 149° |
| 2026-04-22 03:18 | 31.80055 | 130.72127 | 930 ft | 174 kts | 147° |
| 2026-04-22 03:19 | 31.78961 | 130.72833 | 1616 ft | 184 kts | 150° |
| 2026-04-22 03:19 | 31.77791 | 130.73558 | 2295 ft | 192 kts | 150° |
| 2026-04-22 03:19 | 31.76615 | 130.74316 | 2877 ft | 200 kts | 148° |
| 2026-04-22 03:19 | 31.75296 | 130.74989 | 3367 ft | 213 kts | 169° |
| 2026-04-22 03:20 | 31.73812 | 130.74725 | 3854 ft | 229 kts | 205° |
| 2026-04-22 03:20 | 31.72569 | 130.73486 | 4330 ft | 246 kts | 232° |
| 2026-04-22 03:20 | 31.71843 | 130.71648 | 4969 ft | 257 kts | 255° |
| 2026-04-22 03:20 | 31.71730 | 130.69514 | 5589 ft | 269 kts | 277° |
| 2026-04-22 03:21 | 31.72471 | 130.67496 | 6317 ft | 279 kts | 308° |
| 2026-04-22 03:21 | 31.74026 | 130.66147 | 7089 ft | 286 kts | 333° |
| 2026-04-22 03:21 | 31.75894 | 130.65335 | 7804 ft | 292 kts | 340° |
| 2026-04-22 03:21 | 31.77865 | 130.64622 | 8575 ft | 296 kts | 340° |
| 2026-04-22 03:22 | 31.79814 | 130.63879 | 9372 ft | 298 kts | 338° |
| 2026-04-22 03:22 | 31.81754 | 130.63084 | 10197 ft | 300 kts | 336° |
| 2026-04-22 03:22 | 31.83776 | 130.62233 | 10696 ft | 316 kts | 338° |
| 2026-04-22 03:22 | 31.85991 | 130.61639 | 11194 ft | 335 kts | 349° |
| 2026-04-22 03:23 | 31.88344 | 130.61464 | 11728 ft | 350 kts | 355° |
| 2026-04-22 03:23 | 31.90840 | 130.61462 | 12272 ft | 363 kts | 357° |
| 2026-04-22 03:23 | 31.93384 | 130.61499 | 12981 ft | 369 kts | 356° |
| 2026-04-22 03:23 | 31.95952 | 130.61522 | 13602 ft | 373 kts | 356° |
| 2026-04-22 03:24 | 31.98557 | 130.61516 | 13915 ft | 378 kts | 355° |
| 2026-04-22 03:24 | 32.01198 | 130.61484 | 13940 ft | 373 kts | 355° |
| 2026-04-22 03:24 | 32.03799 | 130.61433 | 13953 ft | 373 kts | 354° |
| 2026-04-22 03:24 | 32.06374 | 130.61246 | 13928 ft | 370 kts | 349° |
| 2026-04-22 03:25 | 32.08894 | 130.60724 | 13931 ft | 365 kts | 341° |
| 2026-04-22 03:25 | 32.11334 | 130.59904 | 13936 ft | 365 kts | 336° |
| 2026-04-22 03:25 | 32.13747 | 130.58929 | 13957 ft | 364 kts | 335° |
| 2026-04-22 03:25 | 32.16120 | 130.57913 | 13976 ft | 364 kts | 334° |
| 2026-04-22 03:26 | 32.18497 | 130.56889 | 13983 ft | 364 kts | 335° |
| 2026-04-22 03:26 | 32.20884 | 130.55873 | 13968 ft | 363 kts | 335° |
| 2026-04-22 03:26 | 32.23272 | 130.54872 | 13977 ft | 364 kts | 335° |
| 2026-04-22 03:26 | 32.25667 | 130.53880 | 13971 ft | 365 kts | 335° |
| 2026-04-22 03:27 | 32.28040 | 130.52840 | 13968 ft | 361 kts | 332° |
| 2026-04-22 03:27 | 32.30265 | 130.51523 | 13961 ft | 357 kts | 323° |
| 2026-04-22 03:27 | 32.32311 | 130.49875 | 13966 ft | 353 kts | 317° |
| 2026-04-22 03:27 | 32.34215 | 130.48085 | 13970 ft | 351 kts | 315° |
| 2026-04-22 03:28 | 32.36078 | 130.46217 | 13959 ft | 350 kts | 314° |
| 2026-04-22 03:28 | 32.37920 | 130.44336 | 13956 ft | 352 kts | 314° |
| 2026-04-22 03:28 | 32.39774 | 130.42447 | 13958 ft | 351 kts | 314° |
| 2026-04-22 03:28 | 32.41635 | 130.40564 | 13972 ft | 351 kts | 314° |
| 2026-04-22 03:29 | 32.43507 | 130.38687 | 13960 ft | 352 kts | 315° |
| 2026-04-22 03:29 | 32.45365 | 130.36833 | 13955 ft | 350 kts | 315° |
| 2026-04-22 03:29 | 32.47208 | 130.35007 | 13957 ft | 342 kts | 314° |
| 2026-04-22 03:29 | 32.49027 | 130.33206 | 13966 ft | 333 kts | 314° |
| 2026-04-22 03:30 | 32.50758 | 130.31493 | 13958 ft | 316 kts | 313° |
| 2026-04-22 03:30 | 32.52399 | 130.29860 | 13928 ft | 305 kts | 313° |
| 2026-04-22 03:30 | 32.54043 | 130.28204 | 13722 ft | 314 kts | 313° |
| 2026-04-22 03:30 | 32.55712 | 130.26523 | 13481 ft | 313 kts | 313° |
| 2026-04-22 03:31 | 32.57371 | 130.24864 | 13239 ft | 306 kts | 313° |
| 2026-04-22 03:31 | 32.58977 | 130.23265 | 12953 ft | 302 kts | 313° |
| 2026-04-22 03:31 | 32.60583 | 130.21664 | 12699 ft | 300 kts | 313° |
| 2026-04-22 03:31 | 32.62162 | 130.20091 | 12470 ft | 299 kts | 314° |
| 2026-04-22 03:32 | 32.63779 | 130.18550 | 12225 ft | 294 kts | 316° |
| 2026-04-22 03:32 | 32.65415 | 130.17111 | 11968 ft | 288 kts | 318° |
| 2026-04-22 03:32 | 32.67018 | 130.15747 | 11772 ft | 278 kts | 317° |
| 2026-04-22 03:32 | 32.68544 | 130.14430 | 11632 ft | 265 kts | 317° |
| 2026-04-22 03:33 | 32.69981 | 130.13168 | 11516 ft | 253 kts | 316° |
| 2026-04-22 03:33 | 32.71372 | 130.11935 | 11391 ft | 241 kts | 316° |
| 2026-04-22 03:33 | 32.72688 | 130.10765 | 11281 ft | 231 kts | 316° |
| 2026-04-22 03:33 | 32.73942 | 130.09647 | 11098 ft | 224 kts | 316° |
| 2026-04-22 03:34 | 32.75200 | 130.08524 | 10808 ft | 224 kts | 316° |
| 2026-04-22 03:34 | 32.76443 | 130.07417 | 10492 ft | 225 kts | 316° |
| 2026-04-22 03:34 | 32.77732 | 130.06319 | 10144 ft | 231 kts | 322° |
| 2026-04-22 03:34 | 32.79261 | 130.05647 | 9742 ft | 244 kts | 352° |
| 2026-04-22 03:35 | 32.80932 | 130.06033 | 9365 ft | 252 kts | 28° |
| 2026-04-22 03:35 | 32.82258 | 130.07365 | 8951 ft | 254 kts | 54° |
| 2026-04-22 03:35 | 32.83088 | 130.09221 | 8489 ft | 254 kts | 79° |
| 2026-04-22 03:35 | 32.83095 | 130.11264 | 8053 ft | 246 kts | 111° |
| 2026-04-22 03:36 | 32.82258 | 130.12961 | 7658 ft | 238 kts | 137° |
| 2026-04-22 03:36 | 32.81022 | 130.14243 | 7286 ft | 232 kts | 147° |
| 2026-04-22 03:36 | 32.79740 | 130.15378 | 6918 ft | 227 kts | 147° |
| 2026-04-22 03:36 | 32.78503 | 130.16478 | 6557 ft | 222 kts | 146° |
| 2026-04-22 03:37 | 32.77275 | 130.17581 | 6251 ft | 215 kts | 145° |
| 2026-04-22 03:37 | 32.76129 | 130.18619 | 6148 ft | 202 kts | 145° |
| 2026-04-22 03:37 | 32.75023 | 130.19623 | 6076 ft | 198 kts | 146° |
| 2026-04-22 03:37 | 32.73900 | 130.20569 | 6005 ft | 196 kts | 154° |
| 2026-04-22 03:38 | 32.72624 | 130.21057 | 5841 ft | 195 kts | 179° |
| 2026-04-22 03:38 | 32.71283 | 130.20822 | 5589 ft | 194 kts | 200° |
| 2026-04-22 03:38 | 32.70131 | 130.20026 | 5348 ft | 192 kts | 220° |
| 2026-04-22 03:38 | 32.69326 | 130.18776 | 5111 ft | 192 kts | 242° |
| 2026-04-22 03:39 | 32.68959 | 130.17255 | 4902 ft | 191 kts | 262° |
| 2026-04-22 03:39 | 32.69029 | 130.15688 | 4724 ft | 192 kts | 279° |
| 2026-04-22 03:39 | 32.69499 | 130.14195 | 4540 ft | 197 kts | 298° |
| 2026-04-22 03:39 | 32.70349 | 130.12933 | 4322 ft | 200 kts | 316° |
| 2026-04-22 03:40 | 32.71434 | 130.11891 | 4090 ft | 199 kts | 321° |
| 2026-04-22 03:40 | 32.72512 | 130.10877 | 3868 ft | 197 kts | 320° |
| 2026-04-22 03:40 | 32.73561 | 130.09865 | 3721 ft | 193 kts | 320° |
| 2026-04-22 03:40 | 32.74623 | 130.08833 | 3593 ft | 197 kts | 320° |
| 2026-04-22 03:41 | 32.75676 | 130.07817 | 3446 ft | 195 kts | 320° |
| 2026-04-22 03:41 | 32.76717 | 130.06816 | 3306 ft | 188 kts | 320° |
| 2026-04-22 03:41 | 32.77719 | 130.05850 | 3125 ft | 185 kts | 321° |
| 2026-04-22 03:41 | 32.78718 | 130.04887 | 2948 ft | 184 kts | 321° |
| 2026-04-22 03:42 | 32.79705 | 130.03937 | 2781 ft | 181 kts | 321° |
| 2026-04-22 03:42 | 32.80697 | 130.02982 | 2630 ft | 181 kts | 321° |
| 2026-04-22 03:42 | 32.81645 | 130.02031 | 2442 ft | 179 kts | 318° |
| 2026-04-22 03:42 | 32.82552 | 130.01038 | 2184 ft | 176 kts | 318° |
| 2026-04-22 03:43 | 32.83473 | 130.00056 | 1935 ft | 176 kts | 319° |
| 2026-04-22 03:43 | 32.84360 | 129.99132 | 1660 ft | 162 kts | 319° |
| 2026-04-22 03:43 | 32.85166 | 129.98271 | 1482 ft | 152 kts | 320° |
| 2026-04-22 03:43 | 32.85947 | 129.97441 | 1286 ft | 148 kts | 320° |
| 2026-04-22 03:44 | 32.86722 | 129.96623 | 1088 ft | 147 kts | 319° |
| 2026-04-22 03:44 | 32.87477 | 129.95822 | 887 ft | 146 kts | 319° |
| 2026-04-22 03:44 | 32.88235 | 129.95016 | 696 ft | 146 kts | 320° |
| 2026-04-22 03:44 | 32.88979 | 129.94228 | 498 ft | 142 kts | 319° |
| 2026-04-22 03:45 | 32.89713 | 129.93446 | 324 ft | 141 kts | 319° |
| 2026-04-22 03:45 | 32.90447 | 129.92679 | 148 ft | 140 kts | 319° |
| 2026-04-22 03:45 | 32.91174 | 129.91904 | 31 ft | 139 kts | 319° |
| 2026-04-22 03:45 | 32.91904 | 129.91126 | 15 ft | 139 kts | 317° |
| 2026-04-22 03:46 | 32.92504 | 129.90480 | 14 ft | 87 kts | 319° |
| 2026-04-22 03:46 | 32.92705 | 129.90263 | 14 ft | 7 kts | 66° |
| 2026-04-22 03:46 | 32.92741 | 129.90337 | 14 ft | 2 kts | 52° |
| 2026-04-22 03:46 | 32.92751 | 129.90353 | 14 ft | 2 kts | 49° |
| 2026-04-22 03:47 | 32.92760 | 129.90366 | 14 ft | 1 kts | 49° |
| 2026-04-22 03:47 | 32.92768 | 129.90376 | 14 ft | 3 kts | 49° |
| 2026-04-22 03:47 | 32.92782 | 129.90428 | 14 ft | 7 kts | 87° |
| 2026-04-22 03:47 | 32.92766 | 129.90475 | 14 ft | 6 kts | 140° |
| 2026-04-22 03:48 | 32.92739 | 129.90509 | 14 ft | 5 kts | 138° |
| 2026-04-22 03:48 | 32.92710 | 129.90538 | 14 ft | 5 kts | 138° |
| 2026-04-22 03:48 | 32.92683 | 129.90567 | 14 ft | 5 kts | 138° |
| 2026-04-22 03:48 | 32.92657 | 129.90596 | 14 ft | 4 kts | 138° |
| 2026-04-22 03:49 | 32.92632 | 129.90622 | 14 ft | 4 kts | 139° |
| 2026-04-22 03:49 | 32.92594 | 129.90660 | 14 ft | 8 kts | 139° |
| 2026-04-22 03:49 | 32.92551 | 129.90704 | 14 ft | 7 kts | 139° |
| 2026-04-22 03:49 | 32.92511 | 129.90747 | 14 ft | 7 kts | 137° |
| 2026-04-22 03:50 | 32.92468 | 129.90793 | 14 ft | 8 kts | 137° |
| 2026-04-22 03:50 | 32.92423 | 129.90842 | 14 ft | 8 kts | 137° |
| 2026-04-22 03:50 | 32.92379 | 129.90889 | 14 ft | 8 kts | 137° |
| 2026-04-22 03:50 | 32.92336 | 129.90936 | 14 ft | 8 kts | 137° |
| 2026-04-22 03:51 | 32.92294 | 129.90982 | 14 ft | 8 kts | 137° |
| 2026-04-22 03:51 | 32.92252 | 129.91026 | 14 ft | 7 kts | 138° |
| 2026-04-22 03:51 | 32.92211 | 129.91069 | 14 ft | 7 kts | 138° |
| 2026-04-22 03:51 | 32.92172 | 129.91110 | 14 ft | 7 kts | 138° |
| 2026-04-22 03:52 | 32.92129 | 129.91157 | 14 ft | 9 kts | 138° |
| 2026-04-22 03:52 | 32.92081 | 129.91208 | 14 ft | 9 kts | 138° |
| 2026-04-22 03:52 | 32.92035 | 129.91257 | 14 ft | 8 kts | 138° |
| 2026-04-22 03:52 | 32.91990 | 129.91306 | 14 ft | 8 kts | 137° |
| 2026-04-22 03:53 | 32.91946 | 129.91353 | 14 ft | 8 kts | 137° |
| 2026-04-22 03:53 | 32.91903 | 129.91400 | 14 ft | 8 kts | 137° |
| 2026-04-22 03:53 | 32.91861 | 129.91444 | 14 ft | 8 kts | 138° |
| 2026-04-22 03:53 | 32.91819 | 129.91489 | 14 ft | 7 kts | 138° |
| 2026-04-22 03:54 | 32.91779 | 129.91531 | 14 ft | 7 kts | 139° |
| 2026-04-22 03:54 | 32.91739 | 129.91574 | 14 ft | 7 kts | 138° |
| 2026-04-22 03:54 | 32.91700 | 129.91615 | 14 ft | 7 kts | 138° |
| 2026-04-22 03:54 | 32.91666 | 129.91650 | 14 ft | 7 kts | 138° |
| 2026-04-22 03:55 | 32.91629 | 129.91690 | 14 ft | 7 kts | 138° |
| 2026-04-22 03:55 | 32.91593 | 129.91728 | 14 ft | 6 kts | 138° |
| 2026-04-22 03:55 | 32.91552 | 129.91772 | 14 ft | 9 kts | 138° |
| 2026-04-22 03:55 | 32.91502 | 129.91826 | 14 ft | 9 kts | 137° |
| 2026-04-22 03:56 | 32.91454 | 129.91878 | 14 ft | 9 kts | 138° |
| 2026-04-22 03:56 | 32.91406 | 129.91930 | 14 ft | 9 kts | 137° |
| 2026-04-22 03:56 | 32.91360 | 129.91980 | 14 ft | 8 kts | 138° |
| 2026-04-22 03:56 | 32.91315 | 129.92027 | 15 ft | 8 kts | 138° |
| 2026-04-22 03:57 | 32.91277 | 129.92068 | 15 ft | 6 kts | 138° |
| 2026-04-22 03:57 | 32.91246 | 129.92101 | 16 ft | 5 kts | 138° |
| 2026-04-22 03:57 | 32.91222 | 129.92125 | 16 ft | 3 kts | 139° |
| 2026-04-22 03:57 | 32.91209 | 129.92140 | 17 ft | 0 kts | 118° |
| 2026-04-22 03:58 | 32.91211 | 129.92156 | 17 ft | 5 kts | 58° |
| 2026-04-22 03:58 | 32.91239 | 129.92195 | 17 ft | 6 kts | 48° |
| 2026-04-22 03:58 | 32.91268 | 129.92232 | 17 ft | 6 kts | 47° |
| 2026-04-22 03:58 | 32.91296 | 129.92268 | 17 ft | 4 kts | 48° |
| 2026-04-22 03:59 | 32.91299 | 129.92273 | 17 ft | 0 kts | 48° |